sensor_id;sensor_type;location;lat;lon;timestamp;pressure;altitude;pressure_sealevel;temperature;humidity
50368;BME280;36281;34.132;-118.018;2022-09-02T00:01:35;99034.47;;;38.88;23.24
50368;BME280;36281;34.132;-118.018;2022-09-02T00:04:05;99033.13;;;38.76;23.69
50368;BME280;36281;34.132;-118.018;2022-09-02T00:06:34;99033.69;;;38.64;24.38
50368;BME280;36281;34.132;-118.018;2022-09-02T00:09:03;99037.00;;;38.55;24.68
50368;BME280;36281;34.132;-118.018;2022-09-02T00:11:32;99036.28;;;38.51;24.28
50368;BME280;36281;34.132;-118.018;2022-09-02T00:14:01;99041.88;;;38.47;24.19
50368;BME280;36281;34.132;-118.018;2022-09-02T00:16:31;99036.81;;;38.42;24.50
50368;BME280;36281;34.132;-118.018;2022-09-02T00:19:00;99041.69;;;38.35;24.87
50368;BME280;36281;34.132;-118.018;2022-09-02T00:21:29;99039.41;;;38.30;24.76
50368;BME280;36281;34.132;-118.018;2022-09-02T00:23:59;99042.53;;;38.28;24.70
50368;BME280;36281;34.132;-118.018;2022-09-02T00:26:29;99042.28;;;38.19;24.36
50368;BME280;36281;34.132;-118.018;2022-09-02T00:28:57;99040.09;;;38.07;24.81
50368;BME280;36281;34.132;-118.018;2022-09-02T00:31:26;99054.41;;;38.01;24.97
50368;BME280;36281;34.132;-118.018;2022-09-02T00:33:57;99046.63;;;37.93;25.00
50368;BME280;36281;34.132;-118.018;2022-09-02T00:36:25;99049.09;;;37.84;24.86
50368;BME280;36281;34.132;-118.018;2022-09-02T00:38:53;99048.09;;;37.70;25.41
50368;BME280;36281;34.132;-118.018;2022-09-02T00:41:23;99045.53;;;37.53;25.18
50368;BME280;36281;34.132;-118.018;2022-09-02T00:43:53;99054.31;;;37.44;25.62
50368;BME280;36281;34.132;-118.018;2022-09-02T00:46:22;99062.69;;;37.33;25.55
50368;BME280;36281;34.132;-118.018;2022-09-02T00:48:53;99062.47;;;37.20;26.24
50368;BME280;36281;34.132;-118.018;2022-09-02T00:51:24;99047.25;;;37.05;26.36
50368;BME280;36281;34.132;-118.018;2022-09-02T00:53:53;99049.28;;;36.97;26.85
50368;BME280;36281;34.132;-118.018;2022-09-02T00:56:22;99050.56;;;36.86;26.87
50368;BME280;36281;34.132;-118.018;2022-09-02T00:58:52;99049.47;;;36.76;26.93
50368;BME280;36281;34.132;-118.018;2022-09-02T01:01:21;99051.91;;;36.67;27.12
50368;BME280;36281;34.132;-118.018;2022-09-02T01:03:49;99049.63;;;36.55;27.52
50368;BME280;36281;34.132;-118.018;2022-09-02T01:06:18;99047.34;;;36.46;27.13
50368;BME280;36281;34.132;-118.018;2022-09-02T01:08:50;99051.72;;;36.36;27.41
50368;BME280;36281;34.132;-118.018;2022-09-02T01:11:21;99039.59;;;36.23;27.61
50368;BME280;36281;34.132;-118.018;2022-09-02T01:13:49;99044.00;;;36.10;27.44
50368;BME280;36281;34.132;-118.018;2022-09-02T01:16:18;99042.94;;;35.96;27.17
50368;BME280;36281;34.132;-118.018;2022-09-02T01:18:52;99049.63;;;35.92;27.42
50368;BME280;36281;34.132;-118.018;2022-09-02T01:21:21;99052.41;;;35.85;27.45
50368;BME280;36281;34.132;-118.018;2022-09-02T01:23:51;99045.38;;;35.69;27.75
50368;BME280;36281;34.132;-118.018;2022-09-02T01:26:20;99048.59;;;35.61;28.39
50368;BME280;36281;34.132;-118.018;2022-09-02T01:28:48;99044.66;;;35.55;28.47
50368;BME280;36281;34.132;-118.018;2022-09-02T01:31:17;99056.47;;;35.44;28.71
50368;BME280;36281;34.132;-118.018;2022-09-02T01:33:45;99046.28;;;35.38;28.98
50368;BME280;36281;34.132;-118.018;2022-09-02T01:36:13;99043.16;;;35.32;29.09
50368;BME280;36281;34.132;-118.018;2022-09-02T01:38:42;99038.47;;;35.18;29.34
50368;BME280;36281;34.132;-118.018;2022-09-02T01:41:12;99052.25;;;35.11;29.47
50368;BME280;36281;34.132;-118.018;2022-09-02T01:43:40;99050.28;;;35.05;28.98
50368;BME280;36281;34.132;-118.018;2022-09-02T01:46:08;99052.25;;;34.90;28.80
50368;BME280;36281;34.132;-118.018;2022-09-02T01:48:37;99051.09;;;34.77;29.24
50368;BME280;36281;34.132;-118.018;2022-09-02T01:51:05;99055.00;;;34.65;30.02
50368;BME280;36281;34.132;-118.018;2022-09-02T01:53:34;99052.69;;;34.56;28.44
50368;BME280;36281;34.132;-118.018;2022-09-02T01:56:02;99053.84;;;34.52;29.17
50368;BME280;36281;34.132;-118.018;2022-09-02T01:58:32;99049.50;;;34.36;28.23
50368;BME280;36281;34.132;-118.018;2022-09-02T02:01:00;99062.81;;;34.24;30.00
50368;BME280;36281;34.132;-118.018;2022-09-02T02:03:29;99062.38;;;34.11;30.00
50368;BME280;36281;34.132;-118.018;2022-09-02T02:05:58;99063.94;;;33.98;30.63
50368;BME280;36281;34.132;-118.018;2022-09-02T02:08:26;99064.28;;;33.89;30.86
50368;BME280;36281;34.132;-118.018;2022-09-02T02:10:54;99061.88;;;33.80;31.10
50368;BME280;36281;34.132;-118.018;2022-09-02T02:13:24;99064.97;;;33.72;31.04
50368;BME280;36281;34.132;-118.018;2022-09-02T02:15:53;99062.59;;;33.59;31.76
50368;BME280;36281;34.132;-118.018;2022-09-02T02:18:22;99071.16;;;33.51;31.71
50368;BME280;36281;34.132;-118.018;2022-09-02T02:20:50;99071.47;;;33.38;32.24
50368;BME280;36281;34.132;-118.018;2022-09-02T02:23:19;99075.75;;;33.29;32.18
50368;BME280;36281;34.132;-118.018;2022-09-02T02:25:47;99074.50;;;33.19;32.60
50368;BME280;36281;34.132;-118.018;2022-09-02T02:28:15;99072.47;;;33.09;32.83
50368;BME280;36281;34.132;-118.018;2022-09-02T02:30:44;99075.50;;;32.97;33.09
50368;BME280;36281;34.132;-118.018;2022-09-02T02:33:14;99080.53;;;32.87;33.37
50368;BME280;36281;34.132;-118.018;2022-09-02T02:35:44;99078.50;;;32.81;33.89
50368;BME280;36281;34.132;-118.018;2022-09-02T02:38:13;99089.00;;;32.68;34.14
50368;BME280;36281;34.132;-118.018;2022-09-02T02:40:41;99088.13;;;32.60;34.25
50368;BME280;36281;34.132;-118.018;2022-09-02T02:43:09;99085.31;;;32.50;34.56
50368;BME280;36281;34.132;-118.018;2022-09-02T02:45:38;99088.34;;;32.41;34.69
50368;BME280;36281;34.132;-118.018;2022-09-02T02:48:06;99093.00;;;32.37;35.02
50368;BME280;36281;34.132;-118.018;2022-09-02T02:50:36;99096.44;;;32.30;35.27
50368;BME280;36281;34.132;-118.018;2022-09-02T02:53:05;99103.00;;;32.22;35.27
50368;BME280;36281;34.132;-118.018;2022-09-02T02:55:40;99106.84;;;32.14;35.37
50368;BME280;36281;34.132;-118.018;2022-09-02T02:58:08;99103.97;;;32.03;35.67
50368;BME280;36281;34.132;-118.018;2022-09-02T03:00:36;99115.22;;;31.95;36.03
50368;BME280;36281;34.132;-118.018;2022-09-02T03:03:05;99118.91;;;31.79;36.42
50368;BME280;36281;34.132;-118.018;2022-09-02T03:05:36;99137.47;;;31.63;36.94
50368;BME280;36281;34.132;-118.018;2022-09-02T03:08:06;99147.16;;;31.57;37.16
50368;BME280;36281;34.132;-118.018;2022-09-02T03:10:34;99139.63;;;31.50;38.00
50368;BME280;36281;34.132;-118.018;2022-09-02T03:13:03;99141.06;;;31.40;38.01
50368;BME280;36281;34.132;-118.018;2022-09-02T03:15:32;99151.91;;;31.33;38.37
50368;BME280;36281;34.132;-118.018;2022-09-02T03:18:00;99162.00;;;31.29;39.05
50368;BME280;36281;34.132;-118.018;2022-09-02T03:20:29;99165.03;;;31.24;39.34
50368;BME280;36281;34.132;-118.018;2022-09-02T03:22:59;99174.25;;;31.16;39.81
50368;BME280;36281;34.132;-118.018;2022-09-02T03:25:28;99174.88;;;31.06;39.59
50368;BME280;36281;34.132;-118.018;2022-09-02T03:28:01;99173.16;;;30.98;40.04
50368;BME280;36281;34.132;-118.018;2022-09-02T03:30:31;99175.41;;;30.92;40.08
50368;BME280;36281;34.132;-118.018;2022-09-02T03:33:00;99176.09;;;30.85;40.38
50368;BME280;36281;34.132;-118.018;2022-09-02T03:35:30;99178.28;;;30.76;40.39
50368;BME280;36281;34.132;-118.018;2022-09-02T03:38:00;99181.88;;;30.61;40.81
50368;BME280;36281;34.132;-118.018;2022-09-02T03:40:29;99183.31;;;30.55;40.59
50368;BME280;36281;34.132;-118.018;2022-09-02T03:42:57;99183.91;;;30.45;40.58
50368;BME280;36281;34.132;-118.018;2022-09-02T03:45:26;99181.03;;;30.37;41.30
50368;BME280;36281;34.132;-118.018;2022-09-02T03:47:55;99184.84;;;30.33;41.14
50368;BME280;36281;34.132;-118.018;2022-09-02T03:50:24;99183.91;;;30.25;41.36
50368;BME280;36281;34.132;-118.018;2022-09-02T03:52:52;99199.81;;;30.20;41.81
50368;BME280;36281;34.132;-118.018;2022-09-02T03:55:23;99202.53;;;30.20;41.44
50368;BME280;36281;34.132;-118.018;2022-09-02T03:57:52;99207.75;;;30.09;42.00
50368;BME280;36281;34.132;-118.018;2022-09-02T04:00:21;99205.88;;;29.94;42.43
50368;BME280;36281;34.132;-118.018;2022-09-02T04:02:55;99216.63;;;29.86;42.66
50368;BME280;36281;34.132;-118.018;2022-09-02T04:05:23;99220.84;;;29.84;42.57
50368;BME280;36281;34.132;-118.018;2022-09-02T04:07:52;99216.38;;;29.76;43.01
50368;BME280;36281;34.132;-118.018;2022-09-02T04:10:20;99210.41;;;29.70;42.98
50368;BME280;36281;34.132;-118.018;2022-09-02T04:12:50;99214.09;;;29.62;43.68
50368;BME280;36281;34.132;-118.018;2022-09-02T04:15:18;99214.09;;;29.62;43.68
50368;BME280;36281;34.132;-118.018;2022-09-02T04:17:46;99222.56;;;29.57;44.06
50368;BME280;36281;34.132;-118.018;2022-09-02T04:20:15;99227.59;;;29.55;44.34
50368;BME280;36281;34.132;-118.018;2022-09-02T04:22:44;99227.91;;;29.53;44.26
50368;BME280;36281;34.132;-118.018;2022-09-02T04:25:12;99236.44;;;29.52;44.48
50368;BME280;36281;34.132;-118.018;2022-09-02T04:27:40;99233.56;;;29.45;44.64
50368;BME280;36281;34.132;-118.018;2022-09-02T04:30:11;99234.25;;;29.42;44.70
50368;BME280;36281;34.132;-118.018;2022-09-02T04:32:43;99236.56;;;29.40;45.00
50368;BME280;36281;34.132;-118.018;2022-09-02T04:35:12;99235.22;;;29.33;44.72
50368;BME280;36281;34.132;-118.018;2022-09-02T04:37:41;99232.75;;;29.28;44.94
50368;BME280;36281;34.132;-118.018;2022-09-02T04:40:09;99233.00;;;29.23;45.07
50368;BME280;36281;34.132;-118.018;2022-09-02T04:42:37;99236.00;;;29.18;45.99
50368;BME280;36281;34.132;-118.018;2022-09-02T04:45:06;99234.88;;;29.19;45.29
50368;BME280;36281;34.132;-118.018;2022-09-02T04:47:36;99240.13;;;29.12;45.63
50368;BME280;36281;34.132;-118.018;2022-09-02T04:50:05;99232.06;;;29.00;45.66
50368;BME280;36281;34.132;-118.018;2022-09-02T04:52:34;99231.16;;;28.96;45.74
50368;BME280;36281;34.132;-118.018;2022-09-02T04:55:02;99230.94;;;28.89;46.14
50368;BME280;36281;34.132;-118.018;2022-09-02T04:57:32;99230.75;;;28.81;46.21
50368;BME280;36281;34.132;-118.018;2022-09-02T05:00:00;99222.22;;;28.83;46.76
50368;BME280;36281;34.132;-118.018;2022-09-02T05:02:29;99228.03;;;28.81;46.33
50368;BME280;36281;34.132;-118.018;2022-09-02T05:04:59;99227.13;;;28.77;46.38
50368;BME280;36281;34.132;-118.018;2022-09-02T05:07:27;99220.47;;;28.75;46.71
50368;BME280;36281;34.132;-118.018;2022-09-02T05:09:57;99216.75;;;28.67;46.78
50368;BME280;36281;34.132;-118.018;2022-09-02T05:12:26;99218.13;;;28.61;46.85
50368;BME280;36281;34.132;-118.018;2022-09-02T05:14:54;99227.69;;;28.55;47.24
50368;BME280;36281;34.132;-118.018;2022-09-02T05:17:23;99228.97;;;28.33;47.85
50368;BME280;36281;34.132;-118.018;2022-09-02T05:19:53;99227.97;;;28.38;47.74
50368;BME280;36281;34.132;-118.018;2022-09-02T05:22:23;99229.47;;;28.35;48.11
50368;BME280;36281;34.132;-118.018;2022-09-02T05:24:52;99229.34;;;28.31;48.21
50368;BME280;36281;34.132;-118.018;2022-09-02T05:27:21;99234.44;;;28.33;48.29
50368;BME280;36281;34.132;-118.018;2022-09-02T05:29:52;99237.03;;;28.29;48.43
50368;BME280;36281;34.132;-118.018;2022-09-02T05:32:21;99237.28;;;28.37;48.82
50368;BME280;36281;34.132;-118.018;2022-09-02T05:34:49;99248.19;;;28.37;48.87
50368;BME280;36281;34.132;-118.018;2022-09-02T05:37:18;99256.34;;;28.37;49.41
50368;BME280;36281;34.132;-118.018;2022-09-02T05:39:48;99258.38;;;28.27;49.43
50368;BME280;36281;34.132;-118.018;2022-09-02T05:42:16;99259.53;;;28.26;49.79
50368;BME280;36281;34.132;-118.018;2022-09-02T05:44:47;99259.53;;;28.26;50.40
50368;BME280;36281;34.132;-118.018;2022-09-02T05:47:15;99254.31;;;28.21;49.80
50368;BME280;36281;34.132;-118.018;2022-09-02T05:49:43;99252.84;;;28.24;49.96
50368;BME280;36281;34.132;-118.018;2022-09-02T05:52:12;99257.06;;;28.21;49.95
50368;BME280;36281;34.132;-118.018;2022-09-02T05:54:40;99250.94;;;28.12;49.61
50368;BME280;36281;34.132;-118.018;2022-09-02T05:57:12;99251.63;;;28.09;50.57
50368;BME280;36281;34.132;-118.018;2022-09-02T05:59:41;99251.66;;;27.97;50.54
50368;BME280;36281;34.132;-118.018;2022-09-02T06:02:11;99255.06;;;27.81;50.72
50368;BME280;36281;34.132;-118.018;2022-09-02T06:04:40;99256.22;;;27.80;50.78
50368;BME280;36281;34.132;-118.018;2022-09-02T06:07:08;99251.22;;;27.82;50.79
50368;BME280;36281;34.132;-118.018;2022-09-02T06:09:37;99253.69;;;27.88;51.31
50368;BME280;36281;34.132;-118.018;2022-09-02T06:12:07;99253.03;;;27.78;51.14
50368;BME280;36281;34.132;-118.018;2022-09-02T06:14:37;99258.13;;;27.80;50.93
50368;BME280;36281;34.132;-118.018;2022-09-02T06:17:07;99256.44;;;27.75;51.35
50368;BME280;36281;34.132;-118.018;2022-09-02T06:19:36;99260.63;;;27.73;51.27
50368;BME280;36281;34.132;-118.018;2022-09-02T06:22:04;99249.72;;;27.61;51.71
50368;BME280;36281;34.132;-118.018;2022-09-02T06:24:32;99257.75;;;27.69;52.11
50368;BME280;36281;34.132;-118.018;2022-09-02T06:27:01;99258.75;;;27.65;52.16
50368;BME280;36281;34.132;-118.018;2022-09-02T06:29:29;99266.47;;;27.63;52.46
50368;BME280;36281;34.132;-118.018;2022-09-02T06:31:59;99259.91;;;27.51;52.16
50368;BME280;36281;34.132;-118.018;2022-09-02T06:34:28;99262.75;;;27.55;52.52
50368;BME280;36281;34.132;-118.018;2022-09-02T06:36:56;99253.34;;;27.52;52.79
50368;BME280;36281;34.132;-118.018;2022-09-02T06:39:25;99259.66;;;27.44;52.45
50368;BME280;36281;34.132;-118.018;2022-09-02T06:41:55;99248.56;;;27.49;52.91
50368;BME280;36281;34.132;-118.018;2022-09-02T06:44:23;99259.44;;;27.49;52.88
50368;BME280;36281;34.132;-118.018;2022-09-02T06:46:53;99256.50;;;27.42;53.28
50368;BME280;36281;34.132;-118.018;2022-09-02T06:49:23;99256.84;;;27.41;53.47
50368;BME280;36281;34.132;-118.018;2022-09-02T06:51:52;99254.66;;;27.22;53.55
50368;BME280;36281;34.132;-118.018;2022-09-02T06:54:23;99255.22;;;27.15;53.75
50368;BME280;36281;34.132;-118.018;2022-09-02T06:56:52;99244.41;;;27.06;53.99
50368;BME280;36281;34.132;-118.018;2022-09-02T06:59:20;99251.50;;;26.99;54.48
50368;BME280;36281;34.132;-118.018;2022-09-02T07:01:49;99249.69;;;26.91;54.92
50368;BME280;36281;34.132;-118.018;2022-09-02T07:04:17;99251.59;;;26.90;55.16
50368;BME280;36281;34.132;-118.018;2022-09-02T07:07:06;99254.44;;;26.94;55.39
50368;BME280;36281;34.132;-118.018;2022-09-02T07:09:35;99253.28;;;26.83;55.19
50368;BME280;36281;34.132;-118.018;2022-09-02T07:12:03;99257.25;;;26.85;55.28
50368;BME280;36281;34.132;-118.018;2022-09-02T07:14:35;99260.50;;;26.78;55.54
50368;BME280;36281;34.132;-118.018;2022-09-02T07:17:03;99259.16;;;26.85;55.89
50368;BME280;36281;34.132;-118.018;2022-09-02T07:19:32;99263.34;;;26.82;55.82
50368;BME280;36281;34.132;-118.018;2022-09-02T07:22:01;99264.44;;;26.69;56.23
50368;BME280;36281;34.132;-118.018;2022-09-02T07:24:31;99268.00;;;26.82;56.23
50368;BME280;36281;34.132;-118.018;2022-09-02T07:27:00;99270.81;;;26.85;56.52
50368;BME280;36281;34.132;-118.018;2022-09-02T07:29:28;99265.88;;;26.87;56.42
50368;BME280;36281;34.132;-118.018;2022-09-02T07:31:56;99268.25;;;26.89;56.01
50368;BME280;36281;34.132;-118.018;2022-09-02T07:34:25;99259.38;;;26.79;55.88
50368;BME280;36281;34.132;-118.018;2022-09-02T07:36:53;99270.25;;;26.79;56.53
50368;BME280;36281;34.132;-118.018;2022-09-02T07:39:26;99262.56;;;26.82;56.78
50368;BME280;36281;34.132;-118.018;2022-09-02T07:41:55;99253.94;;;26.79;56.38
50368;BME280;36281;34.132;-118.018;2022-09-02T07:44:24;99260.50;;;26.78;56.70
50368;BME280;36281;34.132;-118.018;2022-09-02T07:46:52;99262.31;;;26.74;56.60
50368;BME280;36281;34.132;-118.018;2022-09-02T07:49:21;99269.88;;;26.48;57.39
50368;BME280;36281;34.132;-118.018;2022-09-02T07:51:50;99274.75;;;26.34;57.80
50368;BME280;36281;34.132;-118.018;2022-09-02T07:54:19;99274.41;;;26.35;57.77
50368;BME280;36281;34.132;-118.018;2022-09-02T07:56:48;99284.75;;;26.42;57.85
50368;BME280;36281;34.132;-118.018;2022-09-02T07:59:18;99296.28;;;26.39;58.01
50368;BME280;36281;34.132;-118.018;2022-09-02T08:01:48;99305.22;;;26.39;57.92
50368;BME280;36281;34.132;-118.018;2022-09-02T08:04:18;99300.91;;;26.38;58.51
50368;BME280;36281;34.132;-118.018;2022-09-02T08:06:46;99302.19;;;26.41;58.36
50368;BME280;36281;34.132;-118.018;2022-09-02T08:09:14;99304.06;;;26.40;59.00
50368;BME280;36281;34.132;-118.018;2022-09-02T08:11:45;99300.13;;;26.38;58.70
50368;BME280;36281;34.132;-118.018;2022-09-02T08:14:16;99304.28;;;26.35;59.28
50368;BME280;36281;34.132;-118.018;2022-09-02T08:16:48;99309.59;;;26.32;59.31
50368;BME280;36281;34.132;-118.018;2022-09-02T08:19:17;99310.44;;;26.23;59.68
50368;BME280;36281;34.132;-118.018;2022-09-02T08:21:45;99314.13;;;26.19;60.13
50368;BME280;36281;34.132;-118.018;2022-09-02T08:24:13;99311.75;;;26.17;60.19
50368;BME280;36281;34.132;-118.018;2022-09-02T08:26:42;99319.97;;;26.00;60.37
50368;BME280;36281;34.132;-118.018;2022-09-02T08:29:10;99310.84;;;26.04;60.66
50368;BME280;36281;34.132;-118.018;2022-09-02T08:31:38;99306.59;;;25.95;60.43
50368;BME280;36281;34.132;-118.018;2022-09-02T08:34:08;99302.97;;;25.91;60.94
50368;BME280;36281;34.132;-118.018;2022-09-02T08:36:37;99305.69;;;25.91;61.19
50368;BME280;36281;34.132;-118.018;2022-09-02T08:39:06;99305.91;;;25.77;61.56
50368;BME280;36281;34.132;-118.018;2022-09-02T08:41:36;99306.97;;;25.85;61.65
50368;BME280;36281;34.132;-118.018;2022-09-02T08:44:08;99308.28;;;25.70;62.38
50368;BME280;36281;34.132;-118.018;2022-09-02T08:46:37;99298.28;;;25.62;62.53
50368;BME280;36281;34.132;-118.018;2022-09-02T08:49:06;99313.25;;;25.68;62.73
50368;BME280;36281;34.132;-118.018;2022-09-02T08:51:40;99310.47;;;25.47;63.21
50368;BME280;36281;34.132;-118.018;2022-09-02T08:54:10;99311.28;;;25.39;63.70
50368;BME280;36281;34.132;-118.018;2022-09-02T08:56:44;99310.47;;;25.47;63.62
50368;BME280;36281;34.132;-118.018;2022-09-02T08:59:12;99311.69;;;25.58;63.60
50368;BME280;36281;34.132;-118.018;2022-09-02T09:01:43;99321.75;;;25.49;63.88
50368;BME280;36281;34.132;-118.018;2022-09-02T09:04:16;99320.69;;;25.41;64.10
50368;BME280;36281;34.132;-118.018;2022-09-02T09:06:54;99317.47;;;25.39;64.37
50368;BME280;36281;34.132;-118.018;2022-09-02T09:09:26;99322.91;;;25.39;64.27
50368;BME280;36281;34.132;-118.018;2022-09-02T09:11:57;99320.88;;;25.27;64.93
50368;BME280;36281;34.132;-118.018;2022-09-02T09:14:29;99322.91;;;25.31;65.02
50368;BME280;36281;34.132;-118.018;2022-09-02T09:17:01;99332.50;;;25.28;64.97
50368;BME280;36281;34.132;-118.018;2022-09-02T09:19:36;99337.75;;;25.24;65.49
50368;BME280;36281;34.132;-118.018;2022-09-02T09:22:08;99334.09;;;25.29;65.85
50368;BME280;36281;34.132;-118.018;2022-09-02T09:24:38;99332.53;;;25.19;66.24
50368;BME280;36281;34.132;-118.018;2022-09-02T09:27:07;99335.56;;;25.09;66.67
50368;BME280;36281;34.132;-118.018;2022-09-02T09:29:37;99334.75;;;25.17;66.63
50368;BME280;36281;34.132;-118.018;2022-09-02T09:32:18;99345.25;;;25.27;66.48
50368;BME280;36281;34.132;-118.018;2022-09-02T09:34:53;99344.31;;;25.23;66.80
50368;BME280;36281;34.132;-118.018;2022-09-02T09:37:28;99346.84;;;25.29;66.62
50368;BME280;36281;34.132;-118.018;2022-09-02T09:40:04;99361.69;;;25.31;66.43
50368;BME280;36281;34.132;-118.018;2022-09-02T09:42:47;99359.78;;;25.32;66.58
50368;BME280;36281;34.132;-118.018;2022-09-02T09:45:18;99366.78;;;25.33;66.65
50368;BME280;36281;34.132;-118.018;2022-09-02T09:50:32;99368.03;;;25.35;66.75
50368;BME280;36281;34.132;-118.018;2022-09-02T09:53:14;99368.03;;;25.35;66.56
50368;BME280;36281;34.132;-118.018;2022-09-02T09:55:49;99367.13;;;25.31;67.30
50368;BME280;36281;34.132;-118.018;2022-09-02T09:58:18;99375.53;;;25.30;67.45
50368;BME280;36281;34.132;-118.018;2022-09-02T10:00:47;99371.88;;;25.25;67.74
50368;BME280;36281;34.132;-118.018;2022-09-02T10:03:20;99368.25;;;25.21;67.86
50368;BME280;36281;34.132;-118.018;2022-09-02T10:05:52;99369.03;;;25.13;67.95
50368;BME280;36281;34.132;-118.018;2022-09-02T10:08:23;99369.38;;;25.12;67.95
50368;BME280;36281;34.132;-118.018;2022-09-02T10:10:55;99366.94;;;24.93;68.09
50368;BME280;36281;34.132;-118.018;2022-09-02T10:13:24;99372.03;;;24.77;68.93
50368;BME280;36281;34.132;-118.018;2022-09-02T10:16:14;99366.47;;;24.73;69.09
50368;BME280;36281;34.132;-118.018;2022-09-02T10:18:52;99376.50;;;24.82;68.91
50368;BME280;36281;34.132;-118.018;2022-09-02T10:21:25;99363.91;;;24.77;69.27
50368;BME280;36281;34.132;-118.018;2022-09-02T10:23:59;99371.56;;;24.84;69.02
50368;BME280;36281;34.132;-118.018;2022-09-02T10:26:32;99371.25;;;24.77;69.23
50368;BME280;36281;34.132;-118.018;2022-09-02T10:29:10;99356.72;;;24.81;69.54
50368;BME280;36281;34.132;-118.018;2022-09-02T10:31:49;99353.56;;;24.79;69.59
50368;BME280;36281;34.132;-118.018;2022-09-02T10:34:23;99357.72;;;24.77;69.91
50368;BME280;36281;34.132;-118.018;2022-09-02T10:37:03;99366.47;;;24.73;69.41
50368;BME280;36281;34.132;-118.018;2022-09-02T10:39:38;99372.50;;;24.53;70.21
50368;BME280;36281;34.132;-118.018;2022-09-02T10:42:15;99367.06;;;24.53;70.79
50368;BME280;36281;34.132;-118.018;2022-09-02T10:44:47;99372.31;;;24.49;71.22
50368;BME280;36281;34.132;-118.018;2022-09-02T10:47:26;99368.03;;;24.57;70.75
50368;BME280;36281;34.132;-118.018;2022-09-02T10:50:01;99373.59;;;24.61;70.90
50368;BME280;36281;34.132;-118.018;2022-09-02T10:52:33;99378.53;;;24.50;71.17
50368;BME280;36281;34.132;-118.018;2022-09-02T10:55:11;99370.91;;;24.52;70.62
50368;BME280;36281;34.132;-118.018;2022-09-02T10:57:43;99367.25;;;24.57;70.31
50368;BME280;36281;34.132;-118.018;2022-09-02T11:00:13;99374.69;;;24.51;70.22
50368;BME280;36281;34.132;-118.018;2022-09-02T11:02:43;99368.66;;;24.37;71.12
50368;BME280;36281;34.132;-118.018;2022-09-02T11:05:13;99364.19;;;24.49;70.41
50368;BME280;36281;34.132;-118.018;2022-09-02T11:07:46;99363.88;;;24.51;70.62
50368;BME280;36281;34.132;-118.018;2022-09-02T11:10:20;99365.63;;;24.38;71.12
50368;BME280;36281;34.132;-118.018;2022-09-02T11:12:51;99361.63;;;24.44;70.96
50368;BME280;36281;34.132;-118.018;2022-09-02T11:15:26;99363.22;;;24.45;69.73
50368;BME280;36281;34.132;-118.018;2022-09-02T11:18:03;99358.13;;;24.44;69.82
50368;BME280;36281;34.132;-118.018;2022-09-02T11:20:34;99367.19;;;24.39;69.00
50368;BME280;36281;34.132;-118.018;2022-09-02T11:23:07;99362.59;;;24.40;69.50
50368;BME280;36281;34.132;-118.018;2022-09-02T11:25:43;99362.13;;;24.38;69.54
50368;BME280;36281;34.132;-118.018;2022-09-02T11:28:21;99357.97;;;24.40;68.80
50368;BME280;36281;34.132;-118.018;2022-09-02T11:30:52;99359.41;;;24.38;69.33
50368;BME280;36281;34.132;-118.018;2022-09-02T11:33:24;99363.22;;;24.37;69.51
50368;BME280;36281;34.132;-118.018;2022-09-02T11:35:56;99363.34;;;24.32;70.01
50368;BME280;36281;34.132;-118.018;2022-09-02T11:38:34;99355.84;;;24.29;70.71
50368;BME280;36281;34.132;-118.018;2022-09-02T11:41:19;99366.06;;;24.32;71.00
50368;BME280;36281;34.132;-118.018;2022-09-02T11:44:05;99367.03;;;24.36;71.03
50368;BME280;36281;34.132;-118.018;2022-09-02T11:46:47;99366.53;;;24.34;71.18
50368;BME280;36281;34.132;-118.018;2022-09-02T11:52:05;99375.00;;;24.41;70.97
50368;BME280;36281;34.132;-118.018;2022-09-02T11:54:37;99371.81;;;24.39;71.05
50368;BME280;36281;34.132;-118.018;2022-09-02T11:57:10;99365.94;;;24.37;70.80
50368;BME280;36281;34.132;-118.018;2022-09-02T12:02:31;99368.13;;;24.35;71.02
50368;BME280;36281;34.132;-118.018;2022-09-02T12:07:47;99372.56;;;24.22;71.73
50368;BME280;36281;34.132;-118.018;2022-09-02T12:13:04;99367.59;;;24.15;72.06
50368;BME280;36281;34.132;-118.018;2022-09-02T12:15:35;99371.13;;;24.24;71.68
50368;BME280;36281;34.132;-118.018;2022-09-02T12:18:05;99372.84;;;24.20;71.69
50368;BME280;36281;34.132;-118.018;2022-09-02T12:29:29;99376.19;;;24.17;72.58
50368;BME280;36281;34.132;-118.018;2022-09-02T12:31:58;99373.41;;;24.00;72.98
50368;BME280;36281;34.132;-118.018;2022-09-02T12:39:56;99379.66;;;24.09;72.84
50368;BME280;36281;34.132;-118.018;2022-09-02T12:42:30;99384.47;;;24.12;72.52
50368;BME280;36281;34.132;-118.018;2022-09-02T12:45:08;99383.81;;;24.15;72.86
50368;BME280;36281;34.132;-118.018;2022-09-02T12:47:49;99379.66;;;24.09;72.85
50368;BME280;36281;34.132;-118.018;2022-09-02T12:50:22;99385.06;;;24.09;73.33
50368;BME280;36281;34.132;-118.018;2022-09-02T12:52:53;99388.56;;;24.10;73.36
50368;BME280;36281;34.132;-118.018;2022-09-02T12:55:34;99383.53;;;23.86;74.08
50368;BME280;36281;34.132;-118.018;2022-09-02T12:58:07;99381.34;;;23.96;73.83
50368;BME280;36281;34.132;-118.018;2022-09-02T13:00:38;99385.13;;;23.87;73.85
50368;BME280;36281;34.132;-118.018;2022-09-02T13:03:26;99383.25;;;23.96;73.77
50368;BME280;36281;34.132;-118.018;2022-09-02T13:05:58;99380.03;;;23.85;74.02
50368;BME280;36281;34.132;-118.018;2022-09-02T13:08:33;99384.66;;;23.85;74.29
50368;BME280;36281;34.132;-118.018;2022-09-02T13:11:18;99383.72;;;23.89;74.21
50368;BME280;36281;34.132;-118.018;2022-09-02T13:13:58;99385.81;;;23.92;73.84
50368;BME280;36281;34.132;-118.018;2022-09-02T13:16:41;99385.75;;;23.84;74.14